sensor_id;sensor_type;location;lat;lon;timestamp;pressure;altitude;pressure_sealevel;temperature;humidity
36664;BME280;53333;51.976;20.144;2023-01-29T00:01:13;101119.28;;;-0.10;60.85
36664;BME280;53333;51.976;20.144;2023-01-29T00:03:50;101128.03;;;-0.10;60.88
36664;BME280;53333;51.976;20.144;2023-01-29T00:06:23;101131.56;;;-0.09;60.75
36664;BME280;53333;51.976;20.144;2023-01-29T00:08:56;101134.22;;;-0.08;61.00
36664;BME280;53333;51.976;20.144;2023-01-29T00:11:29;101120.19;;;-0.07;61.00
36664;BME280;53333;51.976;20.144;2023-01-29T00:14:03;101117.59;;;-0.05;60.89
36664;BME280;53333;51.976;20.144;2023-01-29T00:16:36;101113.22;;;-0.08;60.94
36664;BME280;53333;51.976;20.144;2023-01-29T00:19:13;101100.03;;;-0.12;60.87
36664;BME280;53333;51.976;20.144;2023-01-29T00:21:46;101113.13;;;-0.14;60.96
36664;BME280;53333;51.976;20.144;2023-01-29T00:24:19;101103.50;;;-0.15;61.00
36664;BME280;53333;51.976;20.144;2023-01-29T00:26:52;101104.38;;;-0.13;61.21
36664;BME280;53333;51.976;20.144;2023-01-29T00:29:25;101092.13;;;-0.14;61.40
36664;BME280;53333;51.976;20.144;2023-01-29T00:31:58;101084.19;;;-0.19;61.17
36664;BME280;53333;51.976;20.144;2023-01-29T00:34:33;101080.66;;;-0.24;61.14
36664;BME280;53333;51.976;20.144;2023-01-29T00:37:06;101081.50;;;-0.25;61.21
36664;BME280;53333;51.976;20.144;2023-01-29T00:39:39;101078.88;;;-0.26;61.42
36664;BME280;53333;51.976;20.144;2023-01-29T00:42:19;101076.19;;;-0.29;61.44
36664;BME280;53333;51.976;20.144;2023-01-29T00:45:10;101072.72;;;-0.30;61.59
36664;BME280;53333;51.976;20.144;2023-01-29T00:47:43;101070.19;;;-0.19;61.54
36664;BME280;53333;51.976;20.144;2023-01-29T00:50:17;101059.56;;;-0.30;61.53
36664;BME280;53333;51.976;20.144;2023-01-29T00:52:50;101068.28;;;-0.32;61.60
36664;BME280;53333;51.976;20.144;2023-01-29T00:55:25;101064.78;;;-0.34;61.56
36664;BME280;53333;51.976;20.144;2023-01-29T00:57:58;101069.19;;;-0.33;61.78
36664;BME280;53333;51.976;20.144;2023-01-29T01:00:31;101064.81;;;-0.31;61.59
36664;BME280;53333;51.976;20.144;2023-01-29T01:03:04;101065.66;;;-0.32;61.72
36664;BME280;53333;51.976;20.144;2023-01-29T01:05:38;101056.94;;;-0.31;61.81
36664;BME280;53333;51.976;20.144;2023-01-29T01:08:11;101045.56;;;-0.32;61.70
36664;BME280;53333;51.976;20.144;2023-01-29T01:11:03;101044.69;;;-0.31;61.82
36664;BME280;53333;51.976;20.144;2023-01-29T01:13:37;101031.53;;;-0.32;61.86
36664;BME280;53333;51.976;20.144;2023-01-29T01:16:11;101020.16;;;-0.34;61.78
36664;BME280;53333;51.976;20.144;2023-01-29T01:18:45;101025.41;;;-0.34;61.80
36664;BME280;53333;51.976;20.144;2023-01-29T01:21:19;101020.16;;;-0.33;61.83
36664;BME280;53333;51.976;20.144;2023-01-29T01:23:52;101011.41;;;-0.30;61.80
36664;BME280;53333;51.976;20.144;2023-01-29T01:26:25;101007.06;;;-0.28;61.74
36664;BME280;53333;51.976;20.144;2023-01-29T01:28:59;101005.31;;;-0.28;61.55
36664;BME280;53333;51.976;20.144;2023-01-29T01:31:32;101013.22;;;-0.26;61.74
36664;BME280;53333;51.976;20.144;2023-01-29T01:34:08;101007.09;;;-0.27;61.42
36664;BME280;53333;51.976;20.144;2023-01-29T01:36:45;101014.06;;;-0.27;61.69
36664;BME280;53333;51.976;20.144;2023-01-29T01:39:18;101014.97;;;-0.27;61.58
36664;BME280;53333;51.976;20.144;2023-01-29T01:41:52;101020.19;;;-0.28;61.55
36664;BME280;53333;51.976;20.144;2023-01-29T01:44:51;101018.47;;;-0.25;61.58
36664;BME280;53333;51.976;20.144;2023-01-29T01:47:28;101023.69;;;-0.29;61.58
36664;BME280;53333;51.976;20.144;2023-01-29T01:50:06;101014.94;;;-0.30;61.49
36664;BME280;53333;51.976;20.144;2023-01-29T01:52:43;101014.06;;;-0.32;61.59
36664;BME280;53333;51.976;20.144;2023-01-29T01:55:19;101011.41;;;-0.33;61.64
36664;BME280;53333;51.976;20.144;2023-01-29T01:57:56;101020.16;;;-0.34;61.59
36664;BME280;53333;51.976;20.144;2023-01-29T02:00:32;101018.38;;;-0.34;61.47
36664;BME280;53333;51.976;20.144;2023-01-29T02:03:06;101010.53;;;-0.32;61.51
36664;BME280;53333;51.976;20.144;2023-01-29T02:05:58;101009.66;;;-0.33;61.73
36664;BME280;53333;51.976;20.144;2023-01-29T02:08:54;101010.53;;;-0.32;61.60
36664;BME280;53333;51.976;20.144;2023-01-29T02:11:46;101021.91;;;-0.33;61.55
36664;BME280;53333;51.976;20.144;2023-01-29T02:14:19;101021.00;;;-0.35;61.67
36664;BME280;53333;51.976;20.144;2023-01-29T02:16:53;101014.00;;;-0.38;61.45
36664;BME280;53333;51.976;20.144;2023-01-29T02:19:35;101023.59;;;-0.39;61.69
36664;BME280;53333;51.976;20.144;2023-01-29T02:22:28;101018.38;;;-0.35;61.75
36664;BME280;53333;51.976;20.144;2023-01-29T02:28:37;101016.59;;;-0.40;61.64
36664;BME280;53333;51.976;20.144;2023-01-29T02:31:17;101020.94;;;-0.40;61.72
36664;BME280;53333;51.976;20.144;2023-01-29T02:34:05;101021.84;;;-0.40;61.74
36664;BME280;53333;51.976;20.144;2023-01-29T02:36:45;101011.34;;;-0.40;61.51
36664;BME280;53333;51.976;20.144;2023-01-29T02:39:27;101002.56;;;-0.42;61.52
36664;BME280;53333;51.976;20.144;2023-01-29T02:42:10;101010.44;;;-0.40;61.78
36664;BME280;53333;51.976;20.144;2023-01-29T02:44:47;101003.47;;;-0.40;61.68
36664;BME280;53333;51.976;20.144;2023-01-29T02:47:29;100992.06;;;-0.40;61.72
36664;BME280;53333;51.976;20.144;2023-01-29T02:50:11;100993.81;;;-0.41;61.64
36664;BME280;53333;51.976;20.144;2023-01-29T02:52:52;100981.56;;;-0.42;61.81
36664;BME280;53333;51.976;20.144;2023-01-29T02:55:33;100985.09;;;-0.40;61.60
36664;BME280;53333;51.976;20.144;2023-01-29T02:58:12;100983.38;;;-0.36;61.64
36664;BME280;53333;51.976;20.144;2023-01-29T03:00:48;100982.50;;;-0.35;61.61
36664;BME280;53333;51.976;20.144;2023-01-29T03:03:26;100985.13;;;-0.35;61.74
36664;BME280;53333;51.976;20.144;2023-01-29T03:06:03;100986.88;;;-0.35;61.43
36664;BME280;53333;51.976;20.144;2023-01-29T03:08:41;100973.72;;;-0.35;61.68
36664;BME280;53333;51.976;20.144;2023-01-29T03:11:16;100978.97;;;-0.35;61.58
36664;BME280;53333;51.976;20.144;2023-01-29T03:13:53;100972.00;;;-0.35;61.58
36664;BME280;53333;51.976;20.144;2023-01-29T03:16:33;100966.78;;;-0.33;61.69
36664;BME280;53333;51.976;20.144;2023-01-29T03:19:11;100955.38;;;-0.32;61.49
36664;BME280;53333;51.976;20.144;2023-01-29T03:21:49;100952.75;;;-0.34;61.65
36664;BME280;53333;51.976;20.144;2023-01-29T03:24:38;100959.75;;;-0.34;61.54
36664;BME280;53333;51.976;20.144;2023-01-29T03:27:36;100965.00;;;-0.33;61.52
36664;BME280;53333;51.976;20.144;2023-01-29T03:30:39;100970.28;;;-0.31;61.52
36664;BME280;53333;51.976;20.144;2023-01-29T03:33:42;100978.16;;;-0.31;61.39
36664;BME280;53333;51.976;20.144;2023-01-29T03:36:20;100976.38;;;-0.32;61.59
36664;BME280;53333;51.976;20.144;2023-01-29T03:38:54;100966.75;;;-0.35;61.48
36664;BME280;53333;51.976;20.144;2023-01-29T03:41:31;100961.50;;;-0.35;61.76
36664;BME280;53333;51.976;20.144;2023-01-29T03:44:12;100964.16;;;-0.32;61.78
36664;BME280;53333;51.976;20.144;2023-01-29T03:46:52;100976.41;;;-0.29;61.69
36664;BME280;53333;51.976;20.144;2023-01-29T03:49:35;100966.78;;;-0.29;61.54
36664;BME280;53333;51.976;20.144;2023-01-29T03:52:18;100962.41;;;-0.31;61.63
36664;BME280;53333;51.976;20.144;2023-01-29T03:55:00;100972.03;;;-0.30;61.58
36664;BME280;53333;51.976;20.144;2023-01-29T03:57:41;100964.16;;;-0.33;61.70
36664;BME280;53333;51.976;20.144;2023-01-29T04:00:21;100963.25;;;-0.32;61.69
36664;BME280;53333;51.976;20.144;2023-01-29T04:03:06;100971.16;;;-0.31;61.70
36664;BME280;53333;51.976;20.144;2023-01-29T04:05:48;100962.41;;;-0.31;61.69
36664;BME280;53333;51.976;20.144;2023-01-29T04:08:31;100965.88;;;-0.32;61.80
36664;BME280;53333;51.976;20.144;2023-01-29T04:11:11;100960.63;;;-0.32;61.79
36664;BME280;53333;51.976;20.144;2023-01-29T04:13:46;100950.13;;;-0.34;61.84
36664;BME280;53333;51.976;20.144;2023-01-29T04:16:26;100949.25;;;-0.33;62.00
36664;BME280;53333;51.976;20.144;2023-01-29T04:19:27;100946.63;;;-0.34;61.76
36664;BME280;53333;51.976;20.144;2023-01-29T04:22:06;100954.47;;;-0.36;62.01
36664;BME280;53333;51.976;20.144;2023-01-29T04:24:44;100941.34;;;-0.36;61.93
36664;BME280;53333;51.976;20.144;2023-01-29T04:27:23;100934.47;;;-0.23;61.90
36664;BME280;53333;51.976;20.144;2023-01-29T04:30:09;100940.50;;;-0.33;61.79
36664;BME280;53333;51.976;20.144;2023-01-29T04:32:56;100938.75;;;-0.33;61.99
36664;BME280;53333;51.976;20.144;2023-01-29T04:35:42;100935.25;;;-0.33;62.09
36664;BME280;53333;51.976;20.144;2023-01-29T04:38:31;100937.88;;;-0.33;62.08
36664;BME280;53333;51.976;20.144;2023-01-29T04:41:11;100929.13;;;-0.34;62.17
36664;BME280;53333;51.976;20.144;2023-01-29T04:43:52;100928.25;;;-0.34;62.20
36664;BME280;53333;51.976;20.144;2023-01-29T04:46:34;100930.00;;;-0.35;62.01
36664;BME280;53333;51.976;20.144;2023-01-29T04:49:16;100927.38;;;-0.35;62.15
36664;BME280;53333;51.976;20.144;2023-01-29T04:51:57;100922.97;;;-0.36;62.17
36664;BME280;53333;51.976;20.144;2023-01-29T04:54:48;100915.97;;;-0.34;62.13
36664;BME280;53333;51.976;20.144;2023-01-29T04:57:25;100917.75;;;-0.34;62.22
36664;BME280;53333;51.976;20.144;2023-01-29T05:00:05;100916.88;;;-0.33;62.23
36664;BME280;53333;51.976;20.144;2023-01-29T05:02:43;100916.00;;;-0.32;62.16
36664;BME280;53333;51.976;20.144;2023-01-29T05:05:19;100911.66;;;-0.32;62.28
36664;BME280;53333;51.976;20.144;2023-01-29T05:07:53;100907.28;;;-0.30;62.16
36664;BME280;53333;51.976;20.144;2023-01-29T05:10:28;100910.75;;;-0.31;62.23
36664;BME280;53333;51.976;20.144;2023-01-29T05:13:05;100908.13;;;-0.31;62.27
36664;BME280;53333;51.976;20.144;2023-01-29T05:15:43;100909.00;;;-0.29;62.39
36664;BME280;53333;51.976;20.144;2023-01-29T05:18:19;100915.16;;;-0.28;62.21
36664;BME280;53333;51.976;20.144;2023-01-29T05:20:54;100916.03;;;-0.28;62.20
36664;BME280;53333;51.976;20.144;2023-01-29T05:23:28;100922.16;;;-0.26;62.13
36664;BME280;53333;51.976;20.144;2023-01-29T05:26:03;100909.03;;;-0.27;62.17
36664;BME280;53333;51.976;20.144;2023-01-29T05:28:36;100907.31;;;-0.27;62.24
36664;BME280;53333;51.976;20.144;2023-01-29T05:31:08;100911.66;;;-0.27;62.15
36664;BME280;53333;51.976;20.144;2023-01-29T05:33:41;100912.56;;;-0.27;62.22
36664;BME280;53333;51.976;20.144;2023-01-29T05:36:14;100906.41;;;-0.26;62.17
36664;BME280;53333;51.976;20.144;2023-01-29T05:38:47;100904.69;;;-0.25;62.02
36664;BME280;53333;51.976;20.144;2023-01-29T05:41:22;100906.44;;;-0.23;62.08
36664;BME280;53333;51.976;20.144;2023-01-29T05:43:55;100907.34;;;-0.21;62.07
36664;BME280;53333;51.976;20.144;2023-01-29T05:46:28;100904.72;;;-0.22;62.04
36664;BME280;53333;51.976;20.144;2023-01-29T05:49:01;100910.84;;;-0.22;62.16
36664;BME280;53333;51.976;20.144;2023-01-29T05:51:34;100895.91;;;-0.24;62.08
36664;BME280;53333;51.976;20.144;2023-01-29T05:54:10;100897.66;;;-0.26;62.10
36664;BME280;53333;51.976;20.144;2023-01-29T05:56:44;100895.91;;;-0.27;62.07
36664;BME280;53333;51.976;20.144;2023-01-29T05:59:17;100898.53;;;-0.27;62.18
36664;BME280;53333;51.976;20.144;2023-01-29T06:01:51;100896.81;;;-0.25;62.18
36664;BME280;53333;51.976;20.144;2023-01-29T06:04:24;100894.25;;;-0.17;61.89
36664;BME280;53333;51.976;20.144;2023-01-29T06:06:57;100888.00;;;-0.32;61.87
36664;BME280;53333;51.976;20.144;2023-01-29T06:09:31;100882.75;;;-0.35;62.13
36664;BME280;53333;51.976;20.144;2023-01-29T06:12:06;100879.19;;;-0.39;62.08
36664;BME280;53333;51.976;20.144;2023-01-29T06:14:39;100884.41;;;-0.40;62.02
36664;BME280;53333;51.976;20.144;2023-01-29T06:17:12;100880.91;;;-0.42;62.26
36664;BME280;53333;51.976;20.144;2023-01-29T06:19:45;100886.16;;;-0.44;62.34
36664;BME280;53333;51.976;20.144;2023-01-29T06:22:18;100892.28;;;-0.43;62.16
36664;BME280;53333;51.976;20.144;2023-01-29T06:24:51;100894.91;;;-0.43;62.22
36664;BME280;53333;51.976;20.144;2023-01-29T06:27:25;100896.66;;;-0.44;62.17
36664;BME280;53333;51.976;20.144;2023-01-29T06:29:58;100903.69;;;-0.43;62.18
36664;BME280;53333;51.976;20.144;2023-01-29T06:32:31;100904.53;;;-0.42;62.14
36664;BME280;53333;51.976;20.144;2023-01-29T06:35:05;100896.66;;;-0.42;62.06
36664;BME280;53333;51.976;20.144;2023-01-29T06:37:40;100894.03;;;-0.42;62.13
36664;BME280;53333;51.976;20.144;2023-01-29T06:40:13;100895.81;;;-0.40;62.07
36664;BME280;53333;51.976;20.144;2023-01-29T06:42:48;100895.84;;;-0.38;62.23
36664;BME280;53333;51.976;20.144;2023-01-29T06:45:21;100902.00;;;-0.34;62.00
36664;BME280;53333;51.976;20.144;2023-01-29T06:47:55;100910.78;;;-0.29;61.93
36664;BME280;53333;51.976;20.144;2023-01-29T06:50:31;100914.31;;;-0.24;61.97
36664;BME280;53333;51.976;20.144;2023-01-29T06:53:04;100905.56;;;-0.23;62.01
36664;BME280;53333;51.976;20.144;2023-01-29T06:55:37;100905.56;;;-0.22;61.89
36664;BME280;53333;51.976;20.144;2023-01-29T06:58:12;100904.72;;;-0.22;61.85
36664;BME280;53333;51.976;20.144;2023-01-29T07:00:45;100902.97;;;-0.22;61.84
36664;BME280;53333;51.976;20.144;2023-01-29T07:03:18;100910.00;;;-0.19;61.80
36664;BME280;53333;51.976;20.144;2023-01-29T07:05:51;100909.09;;;-0.20;61.95
36664;BME280;53333;51.976;20.144;2023-01-29T07:08:25;100903.84;;;-0.16;61.68
36664;BME280;53333;51.976;20.144;2023-01-29T07:10:58;100905.72;;;-0.03;61.71
36664;BME280;53333;51.976;20.144;2023-01-29T07:13:33;100890.78;;;-0.10;61.71
36664;BME280;53333;51.976;20.144;2023-01-29T07:16:06;100887.31;;;-0.08;61.62
36664;BME280;53333;51.976;20.144;2023-01-29T07:18:39;100888.19;;;-0.06;61.59
36664;BME280;53333;51.976;20.144;2023-01-29T07:21:12;100894.31;;;-0.02;61.59
36664;BME280;53333;51.976;20.144;2023-01-29T07:23:45;100903.09;;;-0.02;61.64
36664;BME280;53333;51.976;20.144;2023-01-29T07:26:18;100903.09;;;-0.02;61.42
36664;BME280;53333;51.976;20.144;2023-01-29T07:28:53;100909.25;;;0.01;61.55
36664;BME280;53333;51.976;20.144;2023-01-29T07:31:26;100906.63;;;0.04;61.72
36664;BME280;53333;51.976;20.144;2023-01-29T07:33:59;100910.13;;;0.04;61.53
36664;BME280;53333;51.976;20.144;2023-01-29T07:36:32;100898.75;;;0.05;61.58
36664;BME280;53333;51.976;20.144;2023-01-29T07:39:07;100904.00;;;0.05;61.62
36664;BME280;53333;51.976;20.144;2023-01-29T07:41:40;100893.50;;;0.07;61.61
36664;BME280;53333;51.976;20.144;2023-01-29T07:44:21;100894.41;;;0.09;61.74
36664;BME280;53333;51.976;20.144;2023-01-29T07:46:54;100900.53;;;0.14;61.64
36664;BME280;53333;51.976;20.144;2023-01-29T07:49:27;100900.59;;;0.20;61.45
36664;BME280;53333;51.976;20.144;2023-01-29T07:52:00;100893.59;;;0.25;61.34
36664;BME280;53333;51.976;20.144;2023-01-29T07:54:33;100891.88;;;0.29;61.36
36664;BME280;53333;51.976;20.144;2023-01-29T07:57:06;100884.00;;;0.33;61.46
36664;BME280;53333;51.976;20.144;2023-01-29T07:59:40;100887.56;;;0.39;61.41
36664;BME280;53333;51.976;20.144;2023-01-29T08:02:14;100883.16;;;0.38;61.40
36664;BME280;53333;51.976;20.144;2023-01-29T08:04:47;100886.66;;;0.43;61.25
36664;BME280;53333;51.976;20.144;2023-01-29T08:07:20;100886.69;;;0.44;61.34
36664;BME280;53333;51.976;20.144;2023-01-29T08:09:53;100891.09;;;0.48;61.10
36664;BME280;53333;51.976;20.144;2023-01-29T08:12:26;100889.34;;;0.52;61.32
36664;BME280;53333;51.976;20.144;2023-01-29T08:15:01;100873.59;;;0.57;61.17
36664;BME280;53333;51.976;20.144;2023-01-29T08:17:34;100879.75;;;0.65;61.21
36664;BME280;53333;51.976;20.144;2023-01-29T08:20:20;100879.78;;;0.74;60.85
36664;BME280;53333;51.976;20.144;2023-01-29T08:23:01;100878.91;;;0.80;60.83
36664;BME280;53333;51.976;20.144;2023-01-29T08:25:35;100878.03;;;0.78;60.75
36664;BME280;53333;51.976;20.144;2023-01-29T08:28:09;100875.41;;;0.76;60.81
36664;BME280;53333;51.976;20.144;2023-01-29T08:30:44;100873.66;;;0.77;60.85
36664;BME280;53333;51.976;20.144;2023-01-29T08:33:20;100874.56;;;0.82;60.90
36664;BME280;53333;51.976;20.144;2023-01-29T08:36:08;100863.13;;;0.84;60.73
36664;BME280;53333;51.976;20.144;2023-01-29T08:38:41;100855.25;;;0.89;60.72
36664;BME280;53333;51.976;20.144;2023-01-29T08:41:14;100864.94;;;0.93;60.61
36664;BME280;53333;51.976;20.144;2023-01-29T08:43:47;100873.72;;;1.01;60.62
36664;BME280;53333;51.976;20.144;2023-01-29T08:46:22;100876.38;;;1.11;60.52
36664;BME280;53333;51.976;20.144;2023-01-29T08:48:55;100879.00;;;1.14;60.50
36664;BME280;53333;51.976;20.144;2023-01-29T08:51:28;100871.13;;;1.21;60.36
36664;BME280;53333;51.976;20.144;2023-01-29T08:54:01;100863.19;;;1.31;60.21
36664;BME280;53333;51.976;20.144;2023-01-29T08:56:34;100859.72;;;1.39;60.11
36664;BME280;53333;51.976;20.144;2023-01-29T08:59:08;100863.22;;;1.48;60.05
36664;BME280;53333;51.976;20.144;2023-01-29T09:01:42;100851.78;;;1.64;60.05
36664;BME280;53333;51.976;20.144;2023-01-29T09:04:15;100845.66;;;1.62;59.92
36664;BME280;53333;51.976;20.144;2023-01-29T09:06:48;100831.59;;;1.66;59.78
36664;BME280;53333;51.976;20.144;2023-01-29T09:09:21;100835.97;;;1.70;59.72
36664;BME280;53333;51.976;20.144;2023-01-29T09:11:55;100822.78;;;1.76;59.61
36664;BME280;53333;51.976;20.144;2023-01-29T09:14:28;100826.28;;;1.81;59.37
36664;BME280;53333;51.976;20.144;2023-01-29T09:17:02;100828.94;;;1.80;59.71
36664;BME280;53333;51.976;20.144;2023-01-29T09:19:35;100831.56;;;1.77;59.50
36664;BME280;53333;51.976;20.144;2023-01-29T09:22:08;100821.03;;;1.75;59.44
36664;BME280;53333;51.976;20.144;2023-01-29T09:24:42;100817.53;;;1.79;59.61
36664;BME280;53333;51.976;20.144;2023-01-29T09:27:15;100816.66;;;1.82;59.52
36664;BME280;53333;51.976;20.144;2023-01-29T09:29:48;100814.88;;;1.92;59.48
36664;BME280;53333;51.976;20.144;2023-01-29T09:32:23;100811.28;;;2.04;59.20
36664;BME280;53333;51.976;20.144;2023-01-29T09:35:16;100811.28;;;2.05;59.18
36664;BME280;53333;51.976;20.144;2023-01-29T09:37:49;100804.25;;;2.04;59.28
36664;BME280;53333;51.976;20.144;2023-01-29T09:40:24;100798.13;;;1.99;59.36
36664;BME280;53333;51.976;20.144;2023-01-29T09:43:01;100800.78;;;1.96;59.48
36664;BME280;53333;51.976;20.144;2023-01-29T09:45:38;100796.41;;;1.90;59.74
36664;BME280;53333;51.976;20.144;2023-01-29T09:48:14;100785.91;;;1.83;59.97
36664;BME280;53333;51.976;20.144;2023-01-29T09:50:48;100791.16;;;1.87;59.93
36664;BME280;53333;51.976;20.144;2023-01-29T09:53:28;100791.16;;;1.89;60.11
36664;BME280;53333;51.976;20.144;2023-01-29T09:56:05;100794.66;;;1.83;60.40
36664;BME280;53333;51.976;20.144;2023-01-29T09:58:43;100794.69;;;1.77;60.53
36664;BME280;53333;51.976;20.144;2023-01-29T10:01:20;100798.22;;;1.71;60.71
36664;BME280;53333;51.976;20.144;2023-01-29T10:04:07;100790.34;;;1.65;61.03
36664;BME280;53333;51.976;20.144;2023-01-29T10:06:55;100781.56;;;1.60;61.04
36664;BME280;53333;51.976;20.144;2023-01-29T10:09:49;100782.44;;;1.59;61.30
36664;BME280;53333;51.976;20.144;2023-01-29T10:12:39;100781.56;;;1.55;61.36
36664;BME280;53333;51.976;20.144;2023-01-29T10:15:27;100778.06;;;1.55;61.55
36664;BME280;53333;51.976;20.144;2023-01-29T10:18:28;100771.03;;;1.58;61.64
36664;BME280;53333;51.976;20.144;2023-01-29T10:24:10;100764.88;;;1.56;61.89
36664;BME280;53333;51.976;20.144;2023-01-29T10:26:46;100760.50;;;1.52;62.10
36664;BME280;53333;51.976;20.144;2023-01-29T10:29:20;100766.66;;;1.40;62.31
36664;BME280;53333;51.976;20.144;2023-01-29T10:31:56;100775.47;;;1.25;62.69
36664;BME280;53333;51.976;20.144;2023-01-29T10:34:41;100769.34;;;1.13;63.30
36664;BME280;53333;51.976;20.144;2023-01-29T10:37:17;100764.06;;;1.08;63.40
36664;BME280;53333;51.976;20.144;2023-01-29T10:39:52;100764.94;;;1.08;63.45
36664;BME280;53333;51.976;20.144;2023-01-29T10:42:28;100762.34;;;1.05;63.69
36664;BME280;53333;51.976;20.144;2023-01-29T10:45:16;100759.69;;;1.05;63.96
36664;BME280;53333;51.976;20.144;2023-01-29T10:51:08;100762.34;;;1.07;64.17
36664;BME280;53333;51.976;20.144;2023-01-29T10:53:55;100751.78;;;1.08;64.36
36664;BME280;53333;51.976;20.144;2023-01-29T10:56:46;100746.50;;;1.12;64.45
36664;BME280;53333;51.976;20.144;2023-01-29T10:59:36;100749.16;;;1.15;64.60
36664;BME280;53333;51.976;20.144;2023-01-29T11:02:14;100742.16;;;1.14;65.01
36664;BME280;53333;51.976;20.144;2023-01-29T11:04:48;100735.13;;;1.17;64.94
36664;BME280;53333;51.976;20.144;2023-01-29T11:07:22;100733.34;;;1.22;65.14
36664;BME280;53333;51.976;20.144;2023-01-29T11:09:59;100732.47;;;1.23;65.20
36664;BME280;53333;51.976;20.144;2023-01-29T11:12:35;100735.13;;;1.25;65.46
36664;BME280;53333;51.976;20.144;2023-01-29T11:15:17;100731.56;;;1.27;65.68
36664;BME280;53333;51.976;20.144;2023-01-29T11:18:04;100721.94;;;1.33;65.78
36664;BME280;53333;51.976;20.144;2023-01-29T11:20:42;100722.81;;;1.35;65.75
36664;BME280;53333;51.976;20.144;2023-01-29T11:23:25;100713.16;;;1.37;65.92
36664;BME280;53333;51.976;20.144;2023-01-29T11:26:00;100713.16;;;1.31;65.98
36664;BME280;53333;51.976;20.144;2023-01-29T11:28:37;100710.56;;;1.23;66.04
36664;BME280;53333;51.976;20.144;2023-01-29T11:31:18;100705.28;;;1.20;66.31
36664;BME280;53333;51.976;20.144;2023-01-29T11:34:03;100699.13;;;1.19;66.52
36664;BME280;53333;51.976;20.144;2023-01-29T11:36:38;100689.50;;;1.18;66.63
36664;BME280;53333;51.976;20.144;2023-01-29T11:39:12;100695.63;;;1.33;65.85
36664;BME280;53333;51.976;20.144;2023-01-29T11:41:52;100680.69;;;1.25;66.16
36664;BME280;53333;51.976;20.144;2023-01-29T11:44:31;100672.81;;;1.29;66.38
36664;BME280;53333;51.976;20.144;2023-01-29T11:47:15;100663.13;;;1.32;66.70
36664;BME280;53333;51.976;20.144;2023-01-29T11:49:52;100667.53;;;1.32;66.60
36664;BME280;53333;51.976;20.144;2023-01-29T11:52:34;100664.03;;;1.33;66.81
36664;BME280;53333;51.976;20.144;2023-01-29T11:55:15;100664.91;;;1.29;66.78
36664;BME280;53333;51.976;20.144;2023-01-29T11:57:52;100663.19;;;1.23;66.95
36664;BME280;53333;51.976;20.144;2023-01-29T12:00:31;100657.03;;;1.22;67.14
36664;BME280;53333;51.976;20.144;2023-01-29T12:03:11;100649.13;;;1.22;67.23
36664;BME280;53333;51.976;20.144;2023-01-29T12:05:52;100640.34;;;1.23;67.28
36664;BME280;53333;51.976;20.144;2023-01-29T12:08:31;100636.88;;;1.18;67.18
36664;BME280;53333;51.976;20.144;2023-01-29T12:11:11;100630.72;;;1.13;67.33
36664;BME280;53333;51.976;20.144;2023-01-29T12:13:52;100625.44;;;1.15;67.39
36664;BME280;53333;51.976;20.144;2023-01-29T12:16:29;100625.44;;;1.13;67.41
36664;BME280;53333;51.976;20.144;2023-01-29T12:19:10;100629.00;;;1.12;67.47
36664;BME280;53333;51.976;20.144;2023-01-29T12:21:49;100617.56;;;1.12;67.52
36664;BME280;53333;51.976;20.144;2023-01-29T12:24:30;100613.19;;;1.15;67.44
36664;BME280;53333;51.976;20.144;2023-01-29T12:27:14;100613.19;;;1.18;67.48
36664;BME280;53333;51.976;20.144;2023-01-29T12:29:56;100600.88;;;1.19;67.56
36664;BME280;53333;51.976;20.144;2023-01-29T12:32:40;100598.25;;;1.19;67.48
36664;BME280;53333;51.976;20.144;2023-01-29T12:35:20;100611.41;;;1.17;67.41
36664;BME280;53333;51.976;20.144;2023-01-29T12:37:58;100600.88;;;1.19;67.56
36664;BME280;53333;51.976;20.144;2023-01-29T12:40:38;100593.00;;;1.22;67.52
36664;BME280;53333;51.976;20.144;2023-01-29T12:43:15;100593.84;;;1.22;67.48
36664;BME280;53333;51.976;20.144;2023-01-29T12:45:56;100589.50;;;1.20;67.54
36664;BME280;53333;51.976;20.144;2023-01-29T12:48:38;100589.50;;;1.14;67.52
36664;BME280;53333;51.976;20.144;2023-01-29T12:51:16;100587.75;;;1.09;67.57
36664;BME280;53333;51.976;20.144;2023-01-29T12:53:54;100593.88;;;1.10;67.71
36664;BME280;53333;51.976;20.144;2023-01-29T12:56:31;100589.50;;;1.12;67.80
36664;BME280;53333;51.976;20.144;2023-01-29T12:59:14;100571.97;;;1.08;67.68
36664;BME280;53333;51.976;20.144;2023-01-29T13:01:55;100576.38;;;1.04;67.73
36664;BME280;53333;51.976;20.144;2023-01-29T13:04:35;100575.50;;;1.04;67.87
36664;BME280;53333;51.976;20.144;2023-01-29T13:07:13;100574.63;;;1.03;67.79
36664;BME280;53333;51.976;20.144;2023-01-29T13:09:52;100576.38;;;1.01;68.01
36664;BME280;53333;51.976;20.144;2023-01-29T13:12:27;100578.16;;;1.01;67.98
36664;BME280;53333;51.976;20.144;2023-01-29T13:15:02;100585.13;;;1.08;67.41
36664;BME280;53333;51.976;20.144;2023-01-29T13:17:45;100573.75;;;0.95;67.76
36664;BME280;53333;51.976;20.144;2023-01-29T13:20:23;100573.78;;;0.92;67.89
36664;BME280;53333;51.976;20.144;2023-01-29T13:23:10;100579.94;;;0.93;68.10
36664;BME280;53333;51.976;20.144;2023-01-29T13:25:49;100570.28;;;0.95;68.09
36664;BME280;53333;51.976;20.144;2023-01-29T13:28:25;100577.25;;;0.94;68.05
36664;BME280;53333;51.976;20.144;2023-01-29T13:31:17;100573.75;;;0.98;68.27
36664;BME280;53333;51.976;20.144;2023-01-29T13:34:05;100567.63;;;0.98;68.13
36664;BME280;53333;51.976;20.144;2023-01-29T13:36:41;100578.16;;;0.95;68.23
36664;BME280;53333;51.976;20.144;2023-01-29T13:39:21;100585.19;;;0.93;68.33
36664;BME280;53333;51.976;20.144;2023-01-29T13:41:57;100575.53;;;0.88;68.34
36664;BME280;53333;51.976;20.144;2023-01-29T13:44:32;100576.41;;;0.84;68.43
36664;BME280;53333;51.976;20.144;2023-01-29T13:47:08;100569.44;;;0.82;68.65
36664;BME280;53333;51.976;20.144;2023-01-29T13:49:52;100573.78;;;0.83;68.83